Milwaukee, Wisconsin
Traffic Map
Current Weather Conditions
Milwaukee, Wisconsin
Scattered Clouds
Scattered Clouds
30°
Feels Like: 30°
Wind Chill: 30° Ceiling: Unl
Heat Index: 30° Visibility: 10mi
Dew Point: 16° Wind: 8mph
Humidity: 43% Direction: 260° (W)
Pressure: 29.99in Gusts: 17mph
Raw Report DataKMKE 261852Z 26007G15KT 10SM FEW030 FEW150 SCT230 30/16 A2999 RMK AO2 SLP148 T03000161
Traffic Incident Summary
Active as of:
Severity:
Category:
InformationThere was an issue retrieving the traffic information for this location. Please try a different location or try again shortly.
Advertisements
Track Severe Weather on mobile